Time;durP1;ratioP1;P1;durP2;ratioP2;P2;SDS_P1;SDS_P2;PMS_P1;PMS_P2;Temp;Humidity;BMP_temperature;BMP_pressure;BME280_temperature;BME280_humidity;BME280_pressure;Samples;Min_cycle;Max_cycle;Signal;HPM_P1;HPM_P2
2021/11/17 02:27:29;;;;;;;6.68;4.68;;;7.40;57.40;;;;;;4914018;29;20056;-78
2021/11/17 02:29:58;;;;;;;5.40;4.00;;;7.40;57.40;;;;;;4913066;29;20115;-80
2021/11/17 02:32:59;;;;;;;4.88;4.15;;;7.40;57.40;;;;;;4912320;29;20044;-78
2021/11/17 02:35:44;;;;;;;5.35;4.13;;;7.40;57.50;;;;;;4885461;29;20395;-77
2021/11/17 02:38:22;;;;;;;5.32;4.38;;;7.40;57.50;;;;;;4914821;29;20079;-79
2021/11/17 02:40:57;;;;;;;6.20;4.47;;;7.40;57.50;;;;;;4911419;29;20066;-80
2021/11/17 02:43:34;;;;;;;5.70;4.47;;;7.40;57.50;;;;;;4894699;29;20100;-78
2021/11/17 02:46:09;;;;;;;7.28;4.95;;;7.40;57.50;;;;;;4913298;29;20028;-79
2021/11/17 02:48:38;;;;;;;5.57;4.28;;;7.40;57.40;;;;;;4913890;29;20100;-81
2021/11/17 02:51:28;;;;;;;6.55;4.35;;;7.40;57.40;;;;;;4912884;29;20545;-80
2021/11/17 02:53:56;;;;;;;6.63;3.83;;;7.40;57.40;;;;;;4914247;29;20036;-79
2021/11/17 02:56:31;;;;;;;5.47;3.97;;;7.40;57.30;;;;;;4908389;29;20092;-79
2021/11/17 02:59:28;;;;;;;6.03;4.50;;;7.40;57.40;;;;;;4910796;29;20039;-80
2021/11/17 03:02:19;;;;;;;5.75;4.20;;;7.40;57.40;;;;;;4899373;29;20051;-79
2021/11/17 03:04:44;;;;;;;7.32;4.45;;;7.40;57.50;;;;;;4910213;29;20200;-78
2021/11/17 03:07:29;;;;;;;5.22;4.35;;;7.40;57.60;;;;;;4912707;29;20530;-79
2021/11/17 03:10:18;;;;;;;6.22;4.30;;;7.40;57.70;;;;;;4912596;29;20126;-77
2021/11/17 03:12:53;;;;;;;5.78;3.95;;;7.40;57.70;;;;;;4912290;29;20044;-77
2021/11/17 03:15:25;;;;;;;7.65;4.55;;;7.30;57.70;;;;;;4908753;29;20040;-79
2021/11/17 03:18:07;;;;;;;6.78;4.80;;;7.30;58.00;;;;;;4915450;29;20036;-79
2021/11/17 03:20:51;;;;;;;6.03;4.20;;;7.40;58.00;;;;;;4884237;29;20539;-79
2021/11/17 03:23:26;;;;;;;5.40;4.00;;;7.30;57.80;;;;;;4910635;29;20038;-79
2021/11/17 03:26:08;;;;;;;6.93;4.20;;;7.40;58.00;;;;;;4911029;29;20036;-78
2021/11/17 03:28:56;;;;;;;5.60;4.35;;;7.40;58.00;;;;;;4909577;29;20048;-81
2021/11/17 03:31:37;;;;;;;5.75;4.43;;;7.30;57.90;;;;;;4910723;29;20131;-81
2021/11/17 03:34:28;;;;;;;8.18;4.47;;;7.40;57.90;;;;;;4894227;29;20044;-79
2021/11/17 03:37:03;;;;;;;6.22;4.22;;;7.40;57.90;;;;;;4898552;29;20032;-81
2021/11/17 03:40:07;;;;;;;5.45;3.97;;;7.40;57.80;;;;;;4910600;29;20102;-80
2021/11/17 03:43:10;;;;;;;5.47;3.97;;;7.30;57.90;;;;;;4837515;29;20719;-77
2021/11/17 03:45:57;;;;;;;8.70;4.32;;;7.30;57.90;;;;;;4845767;29;20069;-80
2021/11/17 03:48:26;;;;;;;6.60;4.25;;;7.40;57.80;;;;;;4900215;29;20067;-78
2021/11/17 03:51:17;;;;;;;6.63;4.55;;;7.40;57.90;;;;;;4913038;29;20096;-78
2021/11/17 03:54:34;;;;;;;5.57;4.18;;;7.30;58.00;;;;;;4878488;29;20048;-79
2021/11/17 03:57:03;;;;;;;5.30;4.03;;;7.40;58.00;;;;;;4888210;29;20048;-77
2021/11/17 03:59:50;;;;;;;6.63;4.10;;;7.40;58.00;;;;;;4915824;29;20032;-78
2021/11/17 04:02:33;;;;;;;5.63;3.92;;;7.40;58.00;;;;;;4915643;29;20382;-78
2021/11/17 04:05:16;;;;;;;5.82;3.85;;;7.40;58.00;;;;;;4898960;29;20027;-78
2021/11/17 04:07:51;;;;;;;5.15;3.97;;;7.40;58.00;;;;;;4882897;29;20130;-79
2021/11/17 04:10:34;;;;;;;7.23;3.87;;;7.40;58.00;;;;;;4910882;29;20565;-79
2021/11/17 04:13:06;;;;;;;5.75;3.65;;;7.40;58.00;;;;;;4895406;29;20420;-79
2021/11/17 04:15:50;;;;;;;6.80;4.30;;;7.40;57.90;;;;;;4907887;29;20033;-78
2021/11/17 04:18:16;;;;;;;6.13;4.22;;;7.40;58.00;;;;;;4908719;29;20035;-78
2021/11/17 04:20:52;;;;;;;6.10;4.20;;;7.40;58.00;;;;;;4910947;29;20036;-78
2021/11/17 04:23:20;;;;;;;7.53;4.07;;;7.40;58.00;;;;;;4892769;29;20495;-77
2021/11/17 04:26:35;;;;;;;5.07;3.85;;;7.40;58.00;;;;;;4908016;29;20048;-78
2021/11/17 04:29:04;;;;;;;5.30;3.90;;;7.40;58.10;;;;;;4925413;29;20506;-78
2021/11/17 04:31:51;;;;;;;6.90;4.35;;;7.40;58.00;;;;;;4910506;29;20036;-78
2021/11/17 04:34:36;;;;;;;5.72;4.13;;;7.40;57.90;;;;;;4908243;29;20039;-77
2021/11/17 04:37:20;;;;;;;8.25;4.40;;;7.40;58.00;;;;;;4910163;29;20364;-77
2021/11/17 04:40:14;;;;;;;5.50;3.78;;;7.40;58.00;;;;;;4911186;29;20032;-76
2021/11/17 04:42:58;;;;;;;4.78;3.88;;;7.40;58.00;;;;;;4896634;29;20036;-80
2021/11/17 04:45:35;;;;;;;5.28;4.22;;;7.40;58.20;;;;;;4910158;29;20419;-78
2021/11/17 04:48:01;;;;;;;6.97;4.30;;;7.40;58.10;;;;;;4910003;29;20048;-78
2021/11/17 04:50:50;;;;;;;6.07;4.07;;;7.30;58.10;;;;;;4910776;29;20989;-80
2021/11/17 04:53:16;;;;;;;6.47;4.30;;;7.40;58.10;;;;;;4908633;29;20099;-79
2021/11/17 04:56:15;;;;;;;5.93;4.18;;;7.40;58.00;;;;;;4890359;29;20036;-78
2021/11/17 04:59:14;;;;;;;5.75;4.25;;;7.40;58.10;;;;;;4906515;29;20034;-78
2021/11/17 05:02:02;;;;;;;6.88;4.47;;;7.40;57.90;;;;;;4902227;29;20048;-78
2021/11/17 05:04:47;;;;;;;6.07;4.38;;;7.40;58.00;;;;;;4900939;29;20040;-78
2021/11/17 05:07:39;;;;;;;4.93;3.60;;;7.40;58.10;;;;;;4879963;29;20142;-79
2021/11/17 05:10:14;;;;;;;5.40;3.97;;;7.40;58.10;;;;;;4911216;29;20036;-80
2021/11/17 05:13:07;;;;;;;5.77;4.13;;;7.40;58.20;;;;;;4911978;29;20032;-81
2021/11/17 05:15:58;;;;;;;6.95;4.13;;;7.40;58.20;;;;;;4878156;29;20123;-80
2021/11/17 05:18:30;;;;;;;5.18;4.07;;;7.40;58.10;;;;;;4918514;29;20142;-82
2021/11/17 05:21:06;;;;;;;5.53;4.07;;;7.30;58.10;;;;;;4877298;29;20040;-82
2021/11/17 05:23:53;;;;;;;6.18;4.50;;;7.40;58.00;;;;;;4881071;29;20086;-81
2021/11/17 05:26:39;;;;;;;6.97;4.20;;;7.40;58.00;;;;;;4913023;29;20052;-83
2021/11/17 05:29:30;;;;;;;5.63;4.47;;;7.40;58.00;;;;;;4901411;29;20059;-82
2021/11/17 05:32:15;;;;;;;5.70;4.25;;;7.40;58.00;;;;;;4899195;29;20041;-80
2021/11/17 05:34:52;;;;;;;5.85;3.85;;;7.40;58.10;;;;;;4917059;29;20498;-80
2021/11/17 05:37:49;;;;;;;7.93;4.45;;;7.30;58.00;;;;;;4901139;29;20040;-80
2021/11/17 05:40:27;;;;;;;5.47;3.85;;;7.30;58.00;;;;;;4901284;29;20067;-81
2021/11/17 05:43:20;;;;;;;5.63;4.38;;;7.30;58.20;;;;;;4896760;29;20032;-80
2021/11/17 05:46:03;;;;;;;6.25;4.20;;;7.40;58.10;;;;;;4910857;29;20402;-81
2021/11/17 05:48:50;;;;;;;5.10;4.07;;;7.30;58.00;;;;;;4896534;29;20043;-81
2021/11/17 05:51:35;;;;;;;6.50;4.30;;;7.30;58.10;;;;;;4911022;29;20041;-82
2021/11/17 05:54:20;;;;;;;4.60;3.80;;;7.30;58.10;;;;;;4913911;29;20067;-81
2021/11/17 05:57:04;;;;;;;5.43;3.90;;;7.30;58.30;;;;;;4915960;29;20036;-81
2021/11/17 05:59:36;;;;;;;4.50;3.63;;;7.30;58.30;;;;;;4893460;29;20052;-81
2021/11/17 06:02:11;;;;;;;6.10;4.63;;;7.30;58.30;;;;;;4910622;29;20122;-82
2021/11/17 06:04:37;;;;;;;5.55;4.22;;;7.30;58.30;;;;;;4894952;29;20072;-82
2021/11/17 06:07:03;;;;;;;7.60;4.60;;;7.30;58.40;;;;;;4900180;29;20222;-83
2021/11/17 06:09:28;;;;;;;7.32;4.45;;;7.30;58.40;;;;;;4912959;29;20032;-84
2021/11/17 06:12:01;;;;;;;9.25;4.03;;;7.40;58.30;;;;;;4911252;29;20385;-84
2021/11/17 06:14:34;;;;;;;5.45;3.88;;;7.40;59.50;;;;;;4915085;29;20043;-82
2021/11/17 06:17:34;;;;;;;4.72;3.38;;;7.50;61.20;;;;;;4915400;29;20586;-84
2021/11/17 06:20:02;;;;;;;8.18;4.28;;;7.60;61.80;;;;;;4895807;29;20047;-83
2021/11/17 06:22:31;;;;;;;7.70;3.42;;;7.70;62.70;;;;;;4916412;29;20116;-84
2021/11/17 06:24:59;;;;;;;6.03;3.70;;;7.80;62.90;;;;;;4916808;29;20062;-84
2021/11/17 06:27:29;;;;;;;5.70;3.30;;;7.90;63.00;;;;;;4897802;29;20114;-83
2021/11/17 06:29:58;;;;;;;5.15;3.78;;;8.00;63.20;;;;;;4916595;29;20036;-84
2021/11/17 06:32:25;;;;;;;5.32;3.33;;;8.00;63.20;;;;;;4914830;29;20617;-83
2021/11/17 06:34:53;;;;;;;4.82;3.35;;;8.10;63.10;;;;;;4915157;29;20035;-84
2021/11/17 06:37:22;;;;;;;4.43;2.70;;;8.20;63.10;;;;;;4916634;29;20052;-86
2021/11/17 06:39:51;;;;;;;3.58;3.00;;;8.20;63.00;;;;;;4914499;29;20470;-84
2021/11/17 06:42:24;;;;;;;6.47;3.97;;;8.30;62.90;;;;;;4915602;29;20115;-83
2021/11/17 06:44:50;;;;;;;6.13;3.28;;;8.30;62.80;;;;;;4916029;29;20123;-83
2021/11/17 06:47:17;;;;;;;5.00;3.70;;;8.40;62.80;;;;;;4916301;29;20118;-84
2021/11/17 06:49:43;;;;;;;3.75;3.00;;;8.40;62.70;;;;;;4899491;29;20043;-83
2021/11/17 06:52:09;;;;;;;6.82;3.72;;;8.40;62.60;;;;;;4913878;29;20032;-83
2021/11/17 06:54:36;;;;;;;6.07;3.83;;;8.50;62.70;;;;;;4915655;29;20100;-82
2021/11/17 06:57:02;;;;;;;5.93;4.05;;;8.50;62.10;;;;;;4930317;29;20036;-84
2021/11/17 06:59:28;;;;;;;6.40;3.90;;;8.50;61.40;;;;;;4897509;29;20578;-81
2021/11/17 07:01:54;;;;;;;7.43;3.78;;;8.40;60.60;;;;;;4915634;29;20115;-82
2021/11/17 07:04:20;;;;;;;5.70;4.13;;;8.40;60.10;;;;;;4897766;29;20409;-82
2021/11/17 07:06:46;;;;;;;4.22;3.78;;;8.40;59.70;;;;;;4899674;29;20473;-82
2021/11/17 07:09:12;;;;;;;8.02;3.92;;;8.40;59.50;;;;;;4914779;29;20035;-80
2021/11/17 07:11:39;;;;;;;7.75;4.35;;;8.30;59.30;;;;;;4915073;29;20090;-81
2021/11/17 07:14:11;;;;;;;7.07;4.05;;;8.30;59.20;;;;;;4898897;29;21051;-81
2021/11/17 07:16:40;;;;;;;6.53;4.05;;;8.30;59.00;;;;;;4914989;29;20364;-82
2021/11/17 07:19:09;;;;;;;4.90;3.90;;;8.20;59.00;;;;;;4897697;29;20044;-81
2021/11/17 07:21:37;;;;;;;6.03;3.92;;;8.20;58.90;;;;;;4914633;29;20387;-82
2021/11/17 07:24:05;;;;;;;5.63;4.30;;;8.10;58.70;;;;;;4914233;29;20039;-81
2021/11/17 07:26:31;;;;;;;4.00;3.60;;;8.10;58.80;;;;;;4915324;29;20063;-82
2021/11/17 07:28:57;;;;;;;5.35;3.92;;;8.10;58.70;;;;;;4911973;29;20135;-82
2021/11/17 07:31:23;;;;;;;5.72;4.40;;;8.10;58.70;;;;;;4899823;29;20096;-82
2021/11/17 07:33:49;;;;;;;6.28;5.10;;;8.10;58.60;;;;;;4914799;29;20059;-82
2021/11/17 07:36:16;;;;;;;6.45;5.38;;;8.10;58.60;;;;;;4913546;29;20024;-81
2021/11/17 07:38:44;;;;;;;9.38;5.22;;;8.00;58.40;;;;;;4914384;29;20039;-81
2021/11/17 07:41:10;;;;;;;6.43;5.38;;;8.00;58.40;;;;;;4913747;29;20510;-79
2021/11/17 07:43:36;;;;;;;9.20;5.30;;;8.00;58.40;;;;;;4914286;29;20040;-82
2021/11/17 07:46:03;;;;;;;6.55;5.30;;;8.00;58.50;;;;;;4897453;29;20059;-82
2021/11/17 07:48:29;;;;;;;7.90;6.20;;;8.00;58.50;;;;;;4912153;29;20064;-81
2021/11/17 07:50:55;;;;;;;8.05;5.90;;;8.00;58.40;;;;;;4913247;29;20032;-83
2021/11/17 07:53:24;;;;;;;9.20;5.72;;;7.90;58.50;;;;;;4883559;29;20032;-82
2021/11/17 07:55:52;;;;;;;7.30;5.13;;;7.90;58.40;;;;;;4913566;29;20059;-82
2021/11/17 07:58:21;;;;;;;8.23;6.03;;;7.90;58.40;;;;;;4897414;29;20388;-82
2021/11/17 08:00:50;;;;;;;7.85;5.50;;;7.90;58.30;;;;;;4912460;29;20073;-81
2021/11/17 08:03:18;;;;;;;6.30;5.32;;;7.90;58.40;;;;;;4913269;29;20024;-81
2021/11/17 08:05:46;;;;;;;6.65;5.97;;;7.90;58.40;;;;;;4912772;29;20171;-81
2021/11/17 08:08:13;;;;;;;8.60;5.93;;;7.90;58.20;;;;;;4912275;29;20423;-82
2021/11/17 08:10:40;;;;;;;8.10;6.13;;;7.90;58.10;;;;;;4897634;29;20617;-79
2021/11/17 08:13:07;;;;;;;8.27;6.20;;;7.90;58.20;;;;;;4913536;29;20036;-81
2021/11/17 08:15:33;;;;;;;7.18;6.03;;;7.90;58.20;;;;;;4910483;29;20037;-82
2021/11/17 08:17:59;;;;;;;6.68;5.80;;;7.90;58.30;;;;;;4911978;29;20063;-82
2021/11/17 08:20:26;;;;;;;7.93;6.18;;;7.80;58.20;;;;;;4909799;29;20043;-81
2021/11/17 08:22:54;;;;;;;7.25;5.82;;;7.80;58.20;;;;;;4911455;29;20043;-82
2021/11/17 08:25:23;;;;;;;7.50;5.82;;;7.80;58.10;;;;;;4911779;29;20028;-82
2021/11/17 08:27:50;;;;;;;6.85;5.40;;;7.80;58.10;;;;;;4907456;29;20064;-81
2021/11/17 08:30:19;;;;;;;9.15;5.47;;;7.80;58.10;;;;;;4897297;29;20032;-82
2021/11/17 08:32:45;;;;;;;6.25;5.65;;;7.80;58.20;;;;;;4910718;29;21483;-79
2021/11/17 08:35:17;;;;;;;5.72;5.10;;;7.80;58.10;;;;;;4907975;29;20040;-79
2021/11/17 08:37:44;;;;;;;8.95;5.35;;;7.80;58.20;;;;;;4911094;29;20126;-81
2021/11/17 08:40:16;;;;;;;6.40;5.00;;;7.80;58.10;;;;;;4921237;29;20059;-82
2021/11/17 08:42:42;;;;;;;7.03;5.10;;;7.80;58.30;;;;;;4909228;29;20487;-82
2021/11/17 08:45:09;;;;;;;7.18;4.90;;;7.80;58.10;;;;;;4912701;29;20119;-82
2021/11/17 08:47:35;;;;;;;6.50;4.97;;;7.80;58.20;;;;;;4891545;29;20092;-80
2021/11/17 08:50:05;;;;;;;7.68;5.22;;;7.80;58.30;;;;;;4909793;29;20059;-80
2021/11/17 08:52:31;;;;;;;7.30;5.13;;;7.80;58.30;;;;;;4910560;29;20040;-81
2021/11/17 08:54:57;;;;;;;7.82;5.38;;;7.80;58.30;;;;;;4881075;29;21093;-82
2021/11/17 08:57:23;;;;;;;14.88;5.68;;;7.80;58.50;;;;;;4909315;29;20129;-82
2021/11/17 08:59:51;;;;;;;6.18;4.57;;;7.80;58.10;;;;;;4891774;29;20043;-82
2021/11/17 09:02:16;;;;;;;6.97;4.65;;;7.80;58.20;;;;;;4910201;29;20036;-82
2021/11/17 09:04:44;;;;;;;8.27;5.13;;;7.80;58.20;;;;;;4909299;29;20043;-81
2021/11/17 09:07:11;;;;;;;6.82;5.30;;;7.80;58.10;;;;;;4908631;29;20035;-81
2021/11/17 09:09:37;;;;;;;5.97;4.97;;;7.80;58.00;;;;;;4907837;29;20111;-82
2021/11/17 09:12:03;;;;;;;7.07;5.15;;;7.80;58.00;;;;;;4907242;29;20044;-81
2021/11/17 09:14:29;;;;;;;7.35;5.55;;;7.80;58.00;;;;;;4906284;29;20042;-80
2021/11/17 09:16:55;;;;;;;6.55;5.07;;;7.80;58.00;;;;;;4908185;29;20096;-80
2021/11/17 09:19:22;;;;;;;5.97;4.80;;;7.80;58.10;;;;;;4909803;29;20451;-81
2021/11/17 09:21:49;;;;;;;6.63;4.53;;;7.80;58.10;;;;;;4906044;29;20071;-84
2021/11/17 09:24:17;;;;;;;7.13;5.03;;;7.80;58.10;;;;;;4891771;29;20097;-82
2021/11/17 09:26:46;;;;;;;8.43;4.95;;;7.80;57.90;;;;;;4890809;29;20059;-83
2021/11/17 09:29:12;;;;;;;10.50;5.32;;;7.80;58.00;;;;;;4907563;29;20459;-82
2021/11/17 09:31:41;;;;;;;6.07;4.80;;;7.80;58.00;;;;;;4909499;29;20039;-80
2021/11/17 09:34:08;;;;;;;6.78;4.50;;;7.80;58.10;;;;;;4879254;29;20028;-81
2021/11/17 09:36:36;;;;;;;7.20;5.47;;;7.80;58.10;;;;;;4907800;29;20518;-81
2021/11/17 09:39:04;;;;;;;26.33;14.20;;;7.80;58.10;;;;;;4910152;29;20067;-82
2021/11/17 09:41:57;;;;;;;14.40;8.93;;;7.80;58.10;;;;;;4910866;29;20070;-82
2021/11/17 09:44:29;;;;;;;13.27;7.88;;;7.80;57.90;;;;;;4910603;29;20028;-81
2021/11/17 09:46:57;;;;;;;12.15;8.13;;;7.80;57.70;;;;;;4909976;29;20085;-82
2021/11/17 09:49:38;;;;;;;12.80;7.85;;;7.90;57.90;;;;;;4909335;29;20119;-83
2021/11/17 09:52:12;;;;;;;10.50;6.78;;;7.90;57.70;;;;;;4905104;29;20037;-82
2021/11/17 09:54:41;;;;;;;10.18;5.97;;;7.90;57.80;;;;;;4924650;29;20642;-81
2021/11/17 09:57:09;;;;;;;9.95;6.10;;;7.90;57.50;;;;;;4905880;29;20044;-81
2021/11/17 09:59:44;;;;;;;10.00;5.80;;;7.90;57.70;;;;;;4923985;29;20036;-80
2021/11/17 10:02:14;;;;;;;9.07;5.95;;;7.90;57.60;;;;;;4890079;29;20527;-81
2021/11/17 10:05:06;;;;;;;7.32;4.40;;;7.90;57.60;;;;;;4907009;29;20528;-82
2021/11/17 10:13:26;;;;;;;4.55;3.80;;;8.00;57.50;;;;;;4908293;29;20040;-82
2021/11/17 10:15:55;;;;;;;5.18;3.90;;;8.00;57.60;;;;;;4909194;29;20040;-85
2021/11/17 10:18:46;;;;;;;10.38;4.47;;;8.00;57.70;;;;;;4909625;29;20037;-82
2021/11/17 10:21:26;;;;;;;7.20;4.07;;;7.90;57.70;;;;;;4910559;29;20080;-83
2021/11/17 10:24:20;;;;;;;5.88;4.07;;;7.90;57.80;;;;;;4916579;29;20042;-83
2021/11/17 10:26:52;;;;;;;6.32;4.05;;;7.90;57.80;;;;;;4895071;29;20063;-82
2021/11/17 10:29:39;;;;;;;7.60;4.35;;;7.90;57.80;;;;;;4900340;29;20040;-83
2021/11/17 10:32:26;;;;;;;6.10;3.92;;;7.90;57.80;;;;;;4914969;29;20110;-80
2021/11/17 10:35:03;;;;;;;8.60;4.40;;;7.90;57.90;;;;;;4901182;29;20036;-82
2021/11/17 10:37:51;;;;;;;4.25;3.33;;;7.90;57.80;;;;;;4915590;29;20119;-82
2021/11/17 10:40:24;;;;;;;8.00;3.60;;;7.90;57.90;;;;;;4912659;29;20095;-83
2021/11/17 10:43:03;;;;;;;7.38;3.83;;;7.90;57.90;;;;;;4913253;29;20039;-84
2021/11/17 10:45:45;;;;;;;6.35;4.15;;;7.90;57.90;;;;;;4914233;29;20047;-82
2021/11/17 10:48:39;;;;;;;7.32;3.40;;;7.90;57.80;;;;;;4913531;29;20127;-82
2021/11/17 10:51:22;;;;;;;4.90;3.55;;;7.90;57.90;;;;;;4912644;29;20750;-80
2021/11/17 10:53:51;;;;;;;7.55;4.07;;;7.90;57.80;;;;;;4907583;29;20512;-81
2021/11/17 10:56:20;;;;;;;7.50;3.53;;;7.90;57.80;;;;;;4910843;29;20044;-82
2021/11/17 10:58:59;;;;;;;7.18;4.05;;;7.90;57.80;;;;;;4893500;29;20183;-84
2021/11/17 11:01:33;;;;;;;6.53;3.50;;;7.90;57.80;;;;;;4909254;29;20113;-81
2021/11/17 11:04:05;;;;;;;6.15;3.58;;;8.00;58.00;;;;;;4910762;29;20031;-82
2021/11/17 11:06:45;;;;;;;5.97;3.95;;;7.90;57.90;;;;;;4913572;29;20039;-82
2021/11/17 11:09:22;;;;;;;6.13;3.80;;;8.00;57.90;;;;;;4895532;29;20029;-81
2021/11/17 11:11:52;;;;;;;6.90;4.00;;;8.00;58.00;;;;;;4911210;29;20033;-81
2021/11/17 11:14:29;;;;;;;6.40;3.47;;;8.00;57.90;;;;;;4908803;29;20035;-81
2021/11/17 11:17:01;;;;;;;6.80;3.53;;;7.90;58.00;;;;;;4910640;29;20136;-82
2021/11/17 11:19:29;;;;;;;6.25;3.65;;;7.90;58.00;;;;;;4913078;29;20068;-82
2021/11/17 11:21:58;;;;;;;7.78;3.75;;;7.90;58.00;;;;;;4912051;29;20036;-82
2021/11/17 11:24:39;;;;;;;7.57;3.20;;;8.00;57.80;;;;;;4909173;29;20071;-83
2021/11/17 11:27:05;;;;;;;4.93;3.42;;;8.00;57.90;;;;;;4915424;29;20759;-81
2021/11/17 11:29:33;;;;;;;6.25;3.50;;;8.00;57.90;;;;;;4909576;29;20031;-82
2021/11/17 11:32:00;;;;;;;6.07;3.60;;;8.00;58.00;;;;;;4909076;29;20043;-81
2021/11/17 11:35:03;;;;;;;4.97;3.20;;;7.90;58.00;;;;;;4910585;29;20058;-82
2021/11/17 11:37:32;;;;;;;6.00;3.08;;;7.90;57.90;;;;;;4912627;29;20040;-81
2021/11/17 11:39:58;;;;;;;7.40;3.33;;;8.00;58.10;;;;;;4892724;29;20029;-85
2021/11/17 11:43:01;;;;;;;6.13;3.25;;;8.00;58.10;;;;;;4928404;29;20048;-85
2021/11/17 11:45:26;;;;;;;6.35;3.95;;;8.00;58.10;;;;;;4893842;29;20207;-82
2021/11/17 11:48:03;;;;;;;7.72;3.10;;;8.00;58.00;;;;;;4909526;29;20554;-83
2021/11/17 11:50:32;;;;;;;5.72;2.90;;;7.90;58.00;;;;;;4897334;29;20463;-81
2021/11/17 11:53:47;;;;;;;7.47;3.45;;;8.00;58.00;;;;;;4894930;29;20118;-80
2021/11/17 11:56:29;;;;;;;5.35;3.03;;;8.00;58.00;;;;;;4896613;29;20051;-80
2021/11/17 11:59:25;;;;;;;7.55;3.63;;;8.00;58.00;;;;;;4910889;29;20032;-81
2021/11/17 12:02:06;;;;;;;6.03;3.30;;;8.00;57.90;;;;;;4907868;29;20472;-80
2021/11/17 12:04:32;;;;;;;6.53;3.08;;;8.00;57.90;;;;;;4909262;29;20055;-81
2021/11/17 12:07:16;;;;;;;7.50;3.10;;;8.00;58.00;;;;;;4897211;29;20794;-80
2021/11/17 12:10:20;;;;;;;6.03;3.28;;;8.00;58.00;;;;;;4924434;29;20131;-82
2021/11/17 12:12:46;;;;;;;5.75;3.50;;;8.00;58.00;;;;;;4896047;29;20079;-82
2021/11/17 12:15:27;;;;;;;6.90;3.30;;;8.00;57.90;;;;;;4907911;29;20138;-82
2021/11/17 12:18:15;;;;;;;7.50;3.50;;;8.00;57.80;;;;;;4896076;29;20105;-82
2021/11/17 12:21:04;;;;;;;7.15;3.80;;;8.00;57.90;;;;;;4909733;29;20031;-83
2021/11/17 12:23:33;;;;;;;5.15;3.15;;;8.00;57.90;;;;;;4888955;29;20101;-80
2021/11/17 12:26:10;;;;;;;6.43;3.40;;;8.00;57.90;;;;;;4893158;29;20059;-81
2021/11/17 12:28:58;;;;;;;8.00;3.30;;;8.00;57.70;;;;;;4897765;29;20130;-81
2021/11/17 12:31:29;;;;;;;7.40;4.13;;;8.00;57.80;;;;;;4908692;29;20503;-81
2021/11/17 12:34:11;;;;;;;6.88;3.38;;;8.00;57.80;;;;;;4892301;29;20453;-82
2021/11/17 12:36:57;;;;;;;10.18;3.83;;;8.00;58.40;;;;;;4878277;29;20060;-81
2021/11/17 12:39:48;;;;;;;7.53;3.90;;;8.10;57.90;;;;;;4893188;29;20436;-82
2021/11/17 12:42:21;;;;;;;7.20;4.25;;;8.00;57.80;;;;;;4891593;29;20460;-80
2021/11/17 12:44:50;;;;;;;8.10;4.43;;;8.00;57.80;;;;;;4878648;29;20150;-81
2021/11/17 12:47:25;;;;;;;9.10;4.03;;;8.00;57.80;;;;;;4924532;29;20390;-82
2021/11/17 12:50:10;;;;;;;7.50;3.80;;;8.00;57.90;;;;;;4911191;29;20059;-80
2021/11/17 12:52:48;;;;;;;6.00;3.93;;;8.00;57.90;;;;;;4893060;29;20197;-81
2021/11/17 12:55:30;;;;;;;8.68;4.03;;;8.00;58.00;;;;;;4908029;29;20288;-81
2021/11/17 12:58:23;;;;;;;8.32;4.50;;;8.00;58.10;;;;;;4890384;29;20044;-79
2021/11/17 13:00:55;;;;;;;8.57;3.85;;;8.00;58.00;;;;;;4898814;29;20079;-80
2021/11/17 13:03:49;;;;;;;13.38;4.75;;;8.10;58.50;;;;;;4910060;29;20024;-80
2021/11/17 13:06:28;;;;;;;7.93;4.25;;;8.10;59.30;;;;;;4906318;29;20031;-80
2021/11/17 13:09:35;;;;;;;10.07;5.13;;;8.10;59.10;;;;;;4908079;29;20044;-79
2021/11/17 13:12:05;;;;;;;8.00;3.92;;;8.10;58.80;;;;;;4880943;29;20067;-80
2021/11/17 13:14:42;;;;;;;10.55;4.50;;;8.10;58.60;;;;;;4888585;29;20491;-79
2021/11/17 13:17:30;;;;;;;11.52;5.10;;;8.10;58.40;;;;;;4920627;29;20039;-82
2021/11/17 13:20:16;;;;;;;11.38;4.70;;;8.10;58.40;;;;;;4877779;29;20032;-79
2021/11/17 13:23:09;;;;;;;13.82;5.20;;;8.10;58.20;;;;;;4907100;29;20040;-80
2021/11/17 13:25:50;;;;;;;9.57;4.60;;;8.10;58.20;;;;;;4911634;29;20169;-80
2021/11/17 13:28:35;;;;;;;11.20;4.60;;;8.10;58.30;;;;;;4895865;29;20052;-80
2021/11/17 13:31:32;;;;;;;9.35;4.57;;;8.10;58.20;;;;;;4896105;29;20483;-80
2021/11/17 13:34:29;;;;;;;10.55;4.75;;;8.10;58.20;;;;;;4911722;29;20526;-81
2021/11/17 13:37:19;;;;;;;9.25;4.88;;;8.10;58.30;;;;;;4878442;29;20432;-80
2021/11/17 13:39:46;;;;;;;11.10;4.68;;;8.10;58.40;;;;;;4897683;29;20744;-81
2021/11/17 13:42:12;;;;;;;8.75;4.40;;;8.10;58.40;;;;;;4915500;29;20395;-81
2021/11/17 13:44:39;;;;;;;16.15;4.60;;;8.10;58.50;;;;;;4918707;29;20111;-78
2021/11/17 13:47:15;;;;;;;9.98;3.65;;;8.10;59.10;;;;;;4918821;29;20107;-78
2021/11/17 13:49:47;;;;;;;9.40;4.22;;;8.10;61.60;;;;;;4920849;29;20044;-80
2021/11/17 13:52:16;;;;;;;9.27;4.00;;;8.20;61.70;;;;;;4913575;29;20131;-80
2021/11/17 13:54:42;;;;;;;5.97;3.80;;;8.20;61.70;;;;;;4920844;29;20055;-79
2021/11/17 13:57:10;;;;;;;11.25;4.80;;;8.20;60.60;;;;;;4918496;29;20090;-78
2021/11/17 13:59:37;;;;;;;8.50;4.10;;;8.30;60.20;;;;;;4921592;29;20032;-78
2021/11/17 14:02:04;;;;;;;7.90;4.28;;;8.20;59.80;;;;;;4920792;29;20036;-80
2021/11/17 14:04:30;;;;;;;14.25;4.95;;;8.30;59.70;;;;;;4920622;29;20036;-80
2021/11/17 14:06:57;;;;;;;10.35;4.13;;;8.20;59.50;;;;;;4920745;29;20044;-77
2021/11/17 14:09:24;;;;;;;10.45;4.43;;;8.30;59.40;;;;;;4915722;29;20636;-78
2021/11/17 14:11:51;;;;;;;12.77;4.50;;;8.20;59.10;;;;;;4916645;29;20039;-79
2021/11/17 14:14:18;;;;;;;11.65;4.70;;;8.20;59.10;;;;;;4911627;29;20613;-80
2021/11/17 14:16:44;;;;;;;8.63;4.55;;;8.30;59.10;;;;;;4910629;29;20037;-78
2021/11/17 14:19:10;;;;;;;10.93;4.80;;;8.20;59.00;;;;;;4896936;29;20115;-79
2021/11/17 14:21:37;;;;;;;10.57;4.60;;;8.20;59.00;;;;;;4927177;29;20036;-78
2021/11/17 14:24:05;;;;;;;15.27;4.75;;;8.20;58.90;;;;;;4909138;29;20044;-79
2021/11/17 14:26:33;;;;;;;9.75;4.75;;;8.20;58.90;;;;;;4914245;29;20491;-79
2021/11/17 14:29:10;;;;;;;12.90;4.75;;;8.20;59.00;;;;;;4911804;29;20036;-79
2021/11/17 14:31:43;;;;;;;9.55;4.57;;;8.20;59.10;;;;;;4911270;29;20391;-79
2021/11/17 14:34:09;;;;;;;12.90;5.20;;;8.20;59.00;;;;;;4910460;29;20043;-77
2021/11/17 14:36:43;;;;;;;12.63;4.93;;;8.20;59.10;;;;;;4911444;29;20043;-80
2021/11/17 14:39:09;;;;;;;10.85;5.20;;;8.20;59.10;;;;;;4911500;29;20024;-80
2021/11/17 14:41:36;;;;;;;8.20;5.07;;;8.20;59.00;;;;;;4910252;29;20086;-78
2021/11/17 14:44:03;;;;;;;13.40;5.68;;;8.20;59.00;;;;;;4892104;29;20076;-77
2021/11/17 14:46:31;;;;;;;10.95;5.10;;;8.20;58.90;;;;;;4909981;29;20028;-81
2021/11/17 14:48:57;;;;;;;13.55;5.13;;;8.20;59.10;;;;;;4909378;29;20027;-79
2021/11/17 14:51:23;;;;;;;14.63;6.40;;;8.20;59.10;;;;;;4912950;29;20495;-79
2021/11/17 14:53:51;;;;;;;11.63;5.38;;;8.20;59.00;;;;;;4910902;29;20040;-81
2021/11/17 14:56:18;;;;;;;13.80;5.60;;;8.20;59.10;;;;;;4911656;29;20035;-79
2021/11/17 14:58:45;;;;;;;9.68;5.25;;;8.20;59.10;;;;;;4882388;29;20489;-78
2021/11/17 15:01:26;;;;;;;12.95;5.88;;;8.20;58.90;;;;;;4899340;29;20047;-82
2021/11/17 15:03:53;;;;;;;11.25;5.75;;;8.20;59.10;;;;;;4929525;29;20127;-79
2021/11/17 15:06:20;;;;;;;9.43;5.55;;;8.20;59.10;;;;;;4914646;29;20036;-80
2021/11/17 15:08:47;;;;;;;12.75;5.60;;;8.20;59.20;;;;;;4896439;29;20391;-82
2021/11/17 15:11:14;;;;;;;11.20;6.07;;;8.20;59.20;;;;;;4915508;29;20064;-83
2021/11/17 15:13:41;;;;;;;11.45;5.78;;;8.20;59.20;;;;;;4913561;29;20078;-82
2021/11/17 15:16:10;;;;;;;11.65;5.47;;;8.20;59.20;;;;;;4913569;29;20036;-79
2021/11/17 15:18:38;;;;;;;10.60;5.53;;;8.20;59.20;;;;;;4913961;29;20062;-80
2021/11/17 15:21:05;;;;;;;13.25;5.55;;;8.20;59.30;;;;;;4913730;29;20127;-81
2021/11/17 15:23:32;;;;;;;8.88;6.32;;;8.20;59.30;;;;;;4926825;29;20036;-82
2021/11/17 15:26:01;;;;;;;13.38;5.65;;;8.20;59.30;;;;;;4929191;29;20415;-79
2021/11/17 15:28:38;;;;;;;13.30;5.50;;;8.20;59.30;;;;;;4912270;29;20071;-81
2021/11/17 15:31:10;;;;;;;12.40;5.57;;;8.20;59.30;;;;;;4909804;29;20490;-80
2021/11/17 15:33:37;;;;;;;8.57;5.05;;;8.20;59.30;;;;;;4881946;29;20036;-80
2021/11/17 15:36:06;;;;;;;12.35;6.05;;;8.20;59.40;;;;;;4881963;29;20039;-80
2021/11/17 15:38:37;;;;;;;11.75;5.43;;;8.20;59.30;;;;;;4911811;29;20407;-80
2021/11/17 15:41:06;;;;;;;14.40;6.18;;;8.20;59.30;;;;;;4891930;29;20529;-81
2021/11/17 15:43:33;;;;;;;11.40;4.97;;;8.20;59.40;;;;;;4910713;29;20408;-80
2021/11/17 15:46:03;;;;;;;11.65;5.13;;;8.20;59.40;;;;;;4894264;29;21475;-81
2021/11/17 15:48:34;;;;;;;14.90;5.40;;;8.20;59.40;;;;;;4911626;29;20538;-81
2021/11/17 15:51:08;;;;;;;10.02;5.10;;;8.20;59.30;;;;;;4912406;29;20518;-80
2021/11/17 15:53:36;;;;;;;11.98;5.22;;;8.20;59.40;;;;;;4909131;29;20052;-80
2021/11/17 15:56:03;;;;;;;11.23;5.18;;;8.20;59.30;;;;;;4909630;29;20096;-79
2021/11/17 15:58:30;;;;;;;19.23;6.18;;;8.20;59.40;;;;;;4912193;29;20036;-81
2021/11/17 16:00:56;;;;;;;11.05;5.60;;;8.20;59.40;;;;;;4907609;29;20036;-80
2021/11/17 16:03:22;;;;;;;11.55;5.32;;;8.20;59.40;;;;;;4897685;29;20103;-81
2021/11/17 16:05:48;;;;;;;12.20;5.93;;;8.20;59.40;;;;;;4901376;29;20032;-83
2021/11/17 16:08:15;;;;;;;9.32;5.35;;;8.20;59.40;;;;;;4886178;29;20404;-81